Barnum Island, New York
Current Conditions -  °F | °C
As of 9:51 PM on Sunday 23 Nov 2014 (Local Time) from KJFK Reporting Station
Overcast Overcast  
Wind Chill: 52°   Ceiling: 4900
Heat Index: 52°   Visibility: 10mi
Dew Point: 48°   Wind: 3mph
Humidity: 86%   Direction: 130°SE
Pressure: 30.08"   Gusts: NA
Location:  40.6062°N, 73.6508°W
Report Text: KJFK 240251Z 13003KT 10SM BKN049 OVC220 11/09 A3008 RMK AO2 SLP186 T01110089 58023 $
Loading
Personal Weather Stations






























Interactive Weather Map New forecast layout! Learn more

10-Day Weather Forecast

Advertisements
Track Severe Weather on mobile